Station Historical Data
Daily Summary for April 29, 2017 Units:  English    Metric   Both
« Previous Day
Next Day »
Daily Weekly Monthly Yearly Custom
  High: Low: Average:
Temperature: 62.0 °F 44.5 °F 53.7 °F
Dew Point: 51.8 °F 33.2 °F 43.8 °F
Humidity: 85% 59% 70%
Wind Speed: 11.0mph 0.0mph 2.4mph
Wind Gust: 14.0mph - -
Wind- - WSW
Pressure: 30.26 in 29.95 in -
Precipitation: 0.00 in    
Historical Graphs
 
 
Tabular Data for April 29, 2017
Time Temperature Dew Point Pressure Wind Wind Speed Wind Gust Humidity Rainfall Rate (Hourly)
00:00 56.3 °F 47.4 °F 29.98 in Calm     72% 0.00 in
00:05 56.4 °F 47.5 °F 29.98 in Calm   2.0 mph 72% 0.00 in
00:10 56.7 °F 47.8 °F 29.98 in Calm   3.0 mph 72% 0.00 in
00:15 57.3 °F 48.0 °F 29.98 in SSW 1.0 mph 3.0 mph 71% 0.00 in
00:20 57.8 °F 48.1 °F 29.97 in SSW 1.0 mph 3.0 mph 70% 0.00 in
00:25 58.7 °F 48.6 °F 29.97 in SSW 2.0 mph 3.0 mph 69% 0.00 in
00:30 59.5 °F 48.5 °F 29.97 in SSW 4.0 mph 4.0 mph 67% 0.00 in
00:35 60.1 °F 48.3 °F 29.97 in SSW 2.0 mph 5.0 mph 65% 0.00 in
00:40 60.3 °F 48.1 °F 29.97 in SSW 3.0 mph 6.0 mph 64% 0.00 in
00:45 60.9 °F 48.2 °F 29.98 in South 3.0 mph 7.0 mph 63% 0.00 in
00:50 61.3 °F 48.2 °F 29.98 in SSW 3.0 mph 6.0 mph 62% 0.00 in
00:55 61.6 °F 48.4 °F 29.98 in South 4.0 mph 7.0 mph 62% 0.00 in
01:00 61.5 °F 48.4 °F 29.98 in SSW 3.0 mph 9.0 mph 62% 0.00 in
01:05 61.4 °F 48.3 °F 29.98 in SSW 3.0 mph 9.0 mph 62% 0.00 in
01:10 61.3 °F 48.2 °F 29.98 in SSW 3.0 mph 6.0 mph 62% 0.00 in
01:15 61.4 °F 48.3 °F 29.98 in SSW 3.0 mph 6.0 mph 62% 0.00 in
01:20 61.3 °F 48.2 °F 29.98 in SSW 2.0 mph 5.0 mph 62% 0.00 in
01:25 61.1 °F 48.4 °F 29.97 in SSW 3.0 mph 5.0 mph 63% 0.00 in
01:30 61.1 °F 48.4 °F 29.97 in SSW 3.0 mph 3.0 mph 63% 0.00 in
01:35 60.9 °F 48.2 °F 29.97 in SSW 2.0 mph 5.0 mph 63% 0.00 in
01:40 60.8 °F 48.1 °F 29.98 in SSW 2.0 mph 4.0 mph 63% 0.00 in
01:45 60.8 °F 48.5 °F 29.98 in SSW 1.0 mph 4.0 mph 64% 0.00 in
01:50 60.7 °F 48.4 °F 29.98 in SW 3.0 mph 7.0 mph 64% 0.00 in
01:55 60.9 °F 48.2 °F 29.97 in SSW 2.0 mph 6.0 mph 63% 0.00 in
02:00 61.3 °F 48.6 °F 29.96 in SSW 3.0 mph 7.0 mph 63% 0.00 in
02:05 61.6 °F 48.4 °F 29.96 in SSW 3.0 mph 7.0 mph 62% 0.00 in
02:10 61.9 °F 48.7 °F 29.95 in SSW 3.0 mph 8.0 mph 62% 0.00 in
02:15 61.9 °F 48.7 °F 29.95 in SSW 3.0 mph 8.0 mph 62% 0.00 in
02:20 62.0 °F 48.8 °F 29.96 in SSW 3.0 mph 7.0 mph 62% 0.00 in
02:25 61.8 °F 48.6 °F 29.96 in SW 4.0 mph 7.0 mph 62% 0.00 in
02:30 61.8 °F 49.1 °F 29.96 in SSW 2.0 mph 10.0 mph 63% 0.00 in
02:35 61.7 °F 49.8 °F 29.96 in South 9.0 mph 14.0 mph 65% 0.00 in
02:40 61.4 °F 50.3 °F 29.97 in SW 2.0 mph 14.0 mph 67% 0.00 in
02:45 61.0 °F 51.1 °F 29.97 in WSW 11.0 mph 12.0 mph 70% 0.00 in
02:50 60.7 °F 51.2 °F 29.97 in WSW 6.0 mph 11.0 mph 71% 0.00 in
02:55 60.4 °F 51.7 °F 29.96 in SW 5.0 mph 11.0 mph 73% 0.00 in
03:00 60.1 °F 51.8 °F 29.96 in SW 5.0 mph 11.0 mph 74% 0.00 in
03:05 59.9 °F 51.6 °F 29.96 in SW 6.0 mph 11.0 mph 74% 0.00 in
03:10 59.8 °F 51.5 °F 29.96 in SW 5.0 mph 11.0 mph 74% 0.00 in
03:15 59.7 °F 51.4 °F 29.96 in WSW 8.0 mph 11.0 mph 74% 0.00 in
03:20 59.6 °F 51.3 °F 29.96 in WSW 4.0 mph 11.0 mph 74% 0.00 in
03:25 59.7 °F 51.0 °F 29.96 in WSW 5.0 mph 11.0 mph 73% 0.00 in
03:30 59.7 °F 51.0 °F 29.96 in WSW 4.0 mph 8.0 mph 73% 0.00 in
03:35 59.7 °F 50.7 °F 29.96 in WSW 4.0 mph 11.0 mph 72% 0.00 in
03:40 59.6 °F 50.2 °F 29.97 in West 7.0 mph 8.0 mph 71% 0.00 in
03:45 59.4 °F 50.0 °F 29.97 in WSW 4.0 mph 9.0 mph 71% 0.00 in
03:50 59.2 °F 50.2 °F 29.97 in SW 3.0 mph 9.0 mph 72% 0.00 in
03:55 59.1 °F 49.7 °F 29.97 in WSW 4.0 mph 9.0 mph 71% 0.00 in
04:00 58.9 °F 49.5 °F 29.97 in WSW 4.0 mph 9.0 mph 71% 0.00 in
04:05 58.9 °F 49.5 °F 29.97 in SW 3.0 mph 10.0 mph 71% 0.00 in
04:10 58.9 °F 49.9 °F 29.97 in WSW 9.0 mph 9.0 mph 72% 0.00 in
04:15 58.9 °F 49.9 °F 29.98 in WSW 4.0 mph 10.0 mph 72% 0.00 in
04:20 59.0 °F 50.4 °F 29.98 in SW 5.0 mph 9.0 mph 73% 0.00 in
04:25 59.0 °F 50.4 °F 29.98 in WSW 5.0 mph 14.0 mph 73% 0.00 in
04:30 58.9 °F 50.6 °F 29.98 in WSW 6.0 mph 14.0 mph 74% 0.00 in
04:35 58.9 °F 50.6 °F 29.99 in WSW 5.0 mph 14.0 mph 74% 0.00 in
04:40 58.7 °F 50.8 °F 29.99 in WSW 5.0 mph 9.0 mph 75% 0.00 in
04:45 58.6 °F 51.1 °F 29.99 in WSW 6.0 mph 8.0 mph 76% 0.00 in
04:50 58.3 °F 50.8 °F 29.99 in WSW 5.0 mph 9.0 mph 76% 0.00 in
04:55 58.2 °F 50.7 °F 29.99 in West 2.0 mph 9.0 mph 76% 0.00 in
05:00 58.1 °F 50.9 °F 29.98 in WSW 1.0 mph 7.0 mph 77% 0.00 in
05:05 58.0 °F 50.8 °F 29.98 in SW 5.0 mph 8.0 mph 77% 0.00 in
05:10 57.8 °F 51.0 °F 29.98 in WSW 3.0 mph 10.0 mph 78% 0.00 in
05:15 57.5 °F 51.0 °F 29.98 in WSW 4.0 mph 8.0 mph 79% 0.00 in
05:20 57.2 °F 51.1 °F 29.98 in WSW 4.0 mph 8.0 mph 80% 0.00 in
05:25 56.9 °F 51.1 °F 29.98 in WSW 4.0 mph 7.0 mph 81% 0.00 in
05:30 56.7 °F 50.9 °F 29.98 in SSW 3.0 mph 7.0 mph 81% 0.00 in
05:35 56.2 °F 50.4 °F 29.98 in SSW 3.0 mph 9.0 mph 81% 0.00 in
05:40 55.7 °F 50.3 °F 29.98 in SW 2.0 mph 8.0 mph 82% 0.00 in
05:45 55.4 °F 50.0 °F 29.98 in WSW 3.0 mph 8.0 mph 82% 0.00 in
05:50 55.2 °F 49.8 °F 29.99 in SW 4.0 mph 9.0 mph 82% 0.00 in
05:55 54.9 °F 49.8 °F 29.99 in SW 4.0 mph 9.0 mph 83% 0.00 in
06:00 54.6 °F 49.5 °F 29.99 in SW 3.0 mph 5.0 mph 83% 0.00 in
06:05 54.4 °F 49.3 °F 29.99 in WSW 3.0 mph 6.0 mph 83% 0.00 in
06:10 54.3 °F 49.2 °F 29.99 in SW 1.0 mph 6.0 mph 83% 0.00 in
06:15 54.1 °F 49.4 °F 29.99 in SW 2.0 mph 6.0 mph 84% 0.00 in
06:20 54.1 °F 49.4 °F 30.00 in SW 2.0 mph 7.0 mph 84% 0.00 in
06:25 53.9 °F 49.2 °F 30.00 in SW 2.0 mph 5.0 mph 84% 0.00 in
06:30 53.8 °F 49.1 °F 30.01 in WSW 3.0 mph 5.0 mph 84% 0.00 in
06:35 53.7 °F 49.0 °F 30.01 in Calm   5.0 mph 84% 0.00 in
06:40 53.7 °F 49.0 °F 30.01 in SW 2.0 mph 6.0 mph 84% 0.00 in
06:45 53.6 °F 49.2 °F 30.02 in SW 2.0 mph 6.0 mph 85% 0.00 in
06:50 53.4 °F 49.0 °F 30.02 in SW 2.0 mph 5.0 mph 85% 0.00 in
06:55 53.3 °F 48.9 °F 30.02 in SW 2.0 mph 6.0 mph 85% 0.00 in
07:00 53.2 °F 48.8 °F 30.02 in WSW 3.0 mph 6.0 mph 85% 0.00 in
07:05 53.1 °F 48.7 °F 30.02 in WSW 3.0 mph 8.0 mph 85% 0.00 in
07:10 53.2 °F 48.8 °F 30.02 in WSW 3.0 mph 7.0 mph 85% 0.00 in
07:15 53.0 °F 48.6 °F 30.03 in SW 3.0 mph 7.0 mph 85% 0.00 in
07:20 52.9 °F 48.5 °F 30.02 in WSW 3.0 mph 6.0 mph 85% 0.00 in
07:25 52.9 °F 48.5 °F 30.03 in Calm   6.0 mph 85% 0.00 in
07:30 53.0 °F 48.6 °F 30.03 in SW 2.0 mph 5.0 mph 85% 0.00 in
07:35 53.0 °F 48.6 °F 30.03 in SW 1.0 mph 5.0 mph 85% 0.00 in
07:40 53.1 °F 48.7 °F 30.03 in SW 2.0 mph 5.0 mph 85% 0.00 in
07:45 53.2 °F 48.8 °F 30.03 in SW 2.0 mph 4.0 mph 85% 0.00 in
07:50 53.2 °F 48.8 °F 30.04 in SW 2.0 mph 4.0 mph 85% 0.00 in
07:55 53.3 °F 48.9 °F 30.04 in SW 2.0 mph 3.0 mph 85% 0.00 in
08:00 53.3 °F 48.9 °F 30.05 in SW 4.0 mph 5.0 mph 85% 0.00 in
08:05 53.3 °F 48.9 °F 30.05 in Calm   6.0 mph 85% 0.00 in
08:10 53.5 °F 49.1 °F 30.05 in SW 1.0 mph 6.0 mph 85% 0.00 in
08:15 53.7 °F 49.3 °F 30.05 in SW 1.0 mph 3.0 mph 85% 0.00 in
08:20 53.8 °F 49.4 °F 30.05 in Calm   3.0 mph 85% 0.00 in
08:25 53.9 °F 49.5 °F 30.05 in Calm   2.0 mph 85% 0.00 in
08:30 54.1 °F 49.7 °F 30.06 in SSW 1.0 mph 1.0 mph 85% 0.00 in
08:35 54.0 °F 48.3 °F 30.06 in NW 1.0 mph 7.0 mph 81% 0.00 in
08:40 52.4 °F 45.1 °F 30.07 in NNW 3.0 mph 8.0 mph 76% 0.00 in
08:45 51.7 °F 44.4 °F 30.08 in North 3.0 mph 8.0 mph 76% 0.00 in
08:50 51.4 °F 44.1 °F 30.08 in North 4.0 mph 8.0 mph 76% 0.00 in
08:55 50.8 °F 43.2 °F 30.09 in NNW 2.0 mph 9.0 mph 75% 0.00 in
09:00 50.5 °F 42.9 °F 30.09 in North 3.0 mph 7.0 mph 75% 0.00 in
09:05 50.5 °F 42.9 °F 30.09 in North 3.0 mph 7.0 mph 75% 0.00 in
09:10 50.4 °F 42.8 °F 30.09 in North 2.0 mph 6.0 mph 75% 0.00 in
09:15 50.7 °F 43.1 °F 30.10 in North 3.0 mph 6.0 mph 75% 0.00 in
09:20 50.8 °F 43.2 °F 30.10 in NNW 3.0 mph 6.0 mph 75% 0.00 in
09:25 50.7 °F 42.7 °F 30.10 in NNW 5.0 mph 6.0 mph 74% 0.00 in
09:30 50.6 °F 42.3 °F 30.10 in NNW 3.0 mph 6.0 mph 73% 0.00 in
09:35 50.6 °F 41.9 °F 30.10 in NNW 3.0 mph 6.0 mph 72% 0.00 in
09:40 50.2 °F 41.5 °F 30.10 in NW 4.0 mph 10.0 mph 72% 0.00 in
09:45 50.3 °F 41.6 °F 30.09 in NNE 3.0 mph 9.0 mph 72% 0.00 in
09:50 50.7 °F 41.6 °F 30.10 in North 1.0 mph 8.0 mph 71% 0.00 in
09:55 50.7 °F 41.6 °F 30.10 in NNW 4.0 mph 9.0 mph 71% 0.00 in
10:00 50.6 °F 41.2 °F 30.11 in NNW 3.0 mph 7.0 mph 70% 0.00 in
10:05 50.8 °F 41.7 °F 30.11 in NNW 3.0 mph 7.0 mph 71% 0.00 in
10:10 51.1 °F 41.7 °F 30.11 in NNW 3.0 mph 4.0 mph 70% 0.00 in
10:15 51.2 °F 42.1 °F 30.11 in NNW 2.0 mph 4.0 mph 71% 0.00 in
10:20 51.2 °F 42.1 °F 30.11 in NNW 1.0 mph 3.0 mph 71% 0.00 in
10:25 51.0 °F 41.6 °F 30.11 in NNW 2.0 mph 4.0 mph 70% 0.00 in
10:30 51.0 °F 41.6 °F 30.11 in NNW 2.0 mph 4.0 mph 70% 0.00 in
10:35 51.1 °F 42.0 °F 30.11 in NNW 1.0 mph 4.0 mph 71% 0.00 in
10:40 51.1 °F 41.3 °F 30.10 in NNW 4.0 mph 5.0 mph 69% 0.00 in
10:45 51.0 °F 41.2 °F 30.10 in NW 2.0 mph 5.0 mph 69% 0.00 in
10:50 51.3 °F 41.8 °F 30.11 in West 1.0 mph 4.0 mph 70% 0.00 in
10:55 51.2 °F 41.0 °F 30.11 in WNW 1.0 mph 4.0 mph 68% 0.00 in
11:00 51.2 °F 41.0 °F 30.11 in NNW 4.0 mph 4.0 mph 68% 0.00 in
11:05 51.5 °F 41.3 °F 30.11 in NW 3.0 mph 7.0 mph 68% 0.00 in
11:10 51.8 °F 40.8 °F 30.11 in NW 1.0 mph 6.0 mph 66% 0.00 in
11:15 51.9 °F 40.5 °F 30.11 in North 2.0 mph 7.0 mph 65% 0.00 in
11:20 51.9 °F 40.9 °F 30.11 in NW 5.0 mph 6.0 mph 66% 0.00 in
11:25 51.9 °F 40.9 °F 30.11 in North 2.0 mph 6.0 mph 66% 0.00 in
11:30 51.9 °F 40.5 °F 30.11 in NNW 3.0 mph 6.0 mph 65% 0.00 in
11:35 51.9 °F 40.5 °F 30.11 in NNW 2.0 mph 5.0 mph 65% 0.00 in
11:40 51.9 °F 40.9 °F 30.10 in NW 1.0 mph 4.0 mph 66% 0.00 in
11:45 52.9 °F 41.8 °F 30.10 in NW 1.0 mph 4.0 mph 66% 0.00 in
11:50 53.2 °F 41.3 °F 30.10 in NNW 4.0 mph 6.0 mph 64% 0.00 in
11:55 53.0 °F 41.9 °F 30.10 in NE 3.0 mph 5.0 mph 66% 0.00 in
12:00 53.3 °F 41.4 °F 30.09 in NNE 2.0 mph 7.0 mph 64% 0.00 in
12:05 53.7 °F 41.8 °F 30.09 in North 3.0 mph 7.0 mph 64% 0.00 in
12:10 54.1 °F 41.4 °F 30.09 in North 3.0 mph 7.0 mph 62% 0.00 in
12:15 54.0 °F 42.1 °F 30.09 in North 3.0 mph 6.0 mph 64% 0.00 in
12:20 54.1 °F 42.2 °F 30.09 in North 3.0 mph 6.0 mph 64% 0.00 in
12:25 54.1 °F 42.2 °F 30.10 in North 3.0 mph 6.0 mph 64% 0.00 in
12:30 54.0 °F 42.5 °F 30.10 in North 1.0 mph 4.0 mph 65% 0.00 in
12:35 54.7 °F 42.8 °F 30.12 in NW 2.0 mph 6.0 mph 64% 0.00 in
12:40 54.7 °F 42.3 °F 30.13 in WNW 3.0 mph 6.0 mph 63% 0.00 in
12:45 54.2 °F 41.9 °F 30.13 in WNW 3.0 mph 6.0 mph 63% 0.00 in
12:50 54.0 °F 41.7 °F 30.14 in WNW 2.0 mph 8.0 mph 63% 0.00 in
12:55 53.9 °F 41.2 °F 30.14 in WNW 3.0 mph 7.0 mph 62% 0.00 in
13:00 53.9 °F 41.2 °F 30.14 in West 4.0 mph 8.0 mph 62% 0.00 in
13:05 53.6 °F 40.0 °F 30.15 in WNW 4.0 mph 10.0 mph 60% 0.00 in
13:10 53.3 °F 40.6 °F 30.15 in WNW 5.0 mph 10.0 mph 62% 0.00 in
13:15 52.9 °F 40.2 °F 30.15 in WNW 4.0 mph 9.0 mph 62% 0.00 in
13:20 52.8 °F 39.7 °F 30.15 in WNW 4.0 mph 9.0 mph 61% 0.00 in
13:25 53.0 °F 39.5 °F 30.15 in WNW 3.0 mph 6.0 mph 60% 0.00 in
13:30 53.3 °F 40.2 °F 30.15 in NW 3.0 mph 6.0 mph 61% 0.00 in
13:35 53.1 °F 39.6 °F 30.15 in NW 3.0 mph 9.0 mph 60% 0.00 in
13:40 52.9 °F 40.2 °F 30.15 in Calm   8.0 mph 62% 0.00 in
13:45 53.2 °F 40.1 °F 30.15 in West 4.0 mph 8.0 mph 61% 0.00 in
13:50 53.2 °F 39.7 °F 30.15 in West 3.0 mph 7.0 mph 60% 0.00 in
13:55 53.6 °F 40.0 °F 30.15 in NW 2.0 mph 6.0 mph 60% 0.00 in
14:00 53.3 °F 39.3 °F 30.15 in NW 4.0 mph 8.0 mph 59% 0.00 in
14:05 53.2 °F 39.2 °F 30.16 in WNW 3.0 mph 8.0 mph 59% 0.00 in
14:10 53.4 °F 39.9 °F 30.17 in West 3.0 mph 6.0 mph 60% 0.00 in
14:15 53.1 °F 39.1 °F 30.18 in West 3.0 mph 6.0 mph 59% 0.00 in
14:20 53.1 °F 39.6 °F 30.17 in WSW 4.0 mph 7.0 mph 60% 0.00 in
14:25 52.8 °F 38.9 °F 30.17 in West 3.0 mph 6.0 mph 59% 0.00 in
14:30 53.0 °F 39.9 °F 30.17 in West 1.0 mph 4.0 mph 61% 0.00 in
14:35 53.1 °F 39.6 °F 30.17 in West 2.0 mph 6.0 mph 60% 0.00 in
14:40 52.9 °F 39.0 °F 30.17 in West 3.0 mph 6.0 mph 59% 0.00 in
14:45 52.8 °F 39.7 °F 30.17 in West 3.0 mph 6.0 mph 61% 0.00 in
14:50 52.6 °F 39.5 °F 30.17 in WNW 1.0 mph 7.0 mph 61% 0.00 in
14:55 52.6 °F 39.1 °F 30.16 in WNW 1.0 mph 4.0 mph 60% 0.00 in
15:00 52.8 °F 39.7 °F 30.17 in WNW 2.0 mph 5.0 mph 61% 0.00 in
15:05 52.8 °F 39.7 °F 30.17 in WNW 2.0 mph 5.0 mph 61% 0.00 in
15:10 52.8 °F 39.3 °F 30.17 in WNW 2.0 mph 4.0 mph 60% 0.00 in
15:15 52.8 °F 39.7 °F 30.17 in WNW 3.0 mph 5.0 mph 61% 0.00 in
15:20 52.9 °F 39.8 °F 30.17 in Calm   3.0 mph 61% 0.00 in
15:25 53.0 °F 39.5 °F 30.17 in WNW 1.0 mph 4.0 mph 60% 0.00 in
15:30 52.8 °F 39.3 °F 30.17 in WNW 1.0 mph 3.0 mph 60% 0.00 in
15:35 52.9 °F 40.2 °F 30.17 in WNW 1.0 mph 4.0 mph 62% 0.00 in
15:40 52.9 °F 39.8 °F 30.17 in WNW 2.0 mph 4.0 mph 61% 0.00 in
15:45 52.8 °F 38.9 °F 30.17 in WNW 2.0 mph 3.0 mph 59% 0.00 in
15:50 52.9 °F 39.8 °F 30.18 in WNW 2.0 mph 3.0 mph 61% 0.00 in
15:55 52.9 °F 39.4 °F 30.17 in WNW 1.0 mph 3.0 mph 60% 0.00 in
16:00 53.0 °F 40.3 °F 30.17 in WNW 1.0 mph 3.0 mph 62% 0.00 in
16:05 53.3 °F 41.0 °F 30.17 in West 1.0 mph 3.0 mph 63% 0.00 in
16:10 53.5 °F 41.2 °F 30.17 in SW 1.0 mph 4.0 mph 63% 0.00 in
16:15 53.2 °F 41.3 °F 30.17 in SSW 4.0 mph 5.0 mph 64% 0.00 in
16:20 53.0 °F 40.7 °F 30.16 in SSW 2.0 mph 5.0 mph 63% 0.00 in
16:25 53.2 °F 41.7 °F 30.16 in Calm   5.0 mph 65% 0.00 in
16:30 53.4 °F 41.9 °F 30.16 in WSW 1.0 mph 4.0 mph 65% 0.00 in
16:35 53.2 °F 41.3 °F 30.16 in WSW 2.0 mph 4.0 mph 64% 0.00 in
16:40 53.1 °F 41.6 °F 30.16 in WSW 2.0 mph 5.0 mph 65% 0.00 in
16:45 53.6 °F 42.5 °F 30.16 in WSW 2.0 mph 5.0 mph 66% 0.00 in
16:50 53.5 °F 41.6 °F 30.16 in SSW 2.0 mph 5.0 mph 64% 0.00 in
16:55 53.8 °F 42.7 °F 30.16 in South 3.0 mph 4.0 mph 66% 0.00 in
17:00 53.6 °F 41.7 °F 30.16 in SSW 1.0 mph 4.0 mph 64% 0.00 in
17:05 53.9 °F 42.0 °F 30.16 in SSW 2.0 mph 4.0 mph 64% 0.00 in
17:10 53.9 °F 42.4 °F 30.16 in SW 2.0 mph 4.0 mph 65% 0.00 in
17:15 53.8 °F 41.9 °F 30.16 in SW 2.0 mph 4.0 mph 64% 0.00 in
17:20 54.0 °F 42.5 °F 30.16 in SW 2.0 mph 5.0 mph 65% 0.00 in
17:25 54.0 °F 42.1 °F 30.16 in SW 3.0 mph 5.0 mph 64% 0.00 in
17:30 54.0 °F 42.1 °F 30.16 in WSW 2.0 mph 5.0 mph 64% 0.00 in
17:35 54.1 °F 42.6 °F 30.16 in SW 4.0 mph 5.0 mph 65% 0.00 in
17:40 53.8 °F 41.9 °F 30.16 in SSW 4.0 mph 6.0 mph 64% 0.00 in
17:45 53.6 °F 41.3 °F 30.16 in SW 3.0 mph 5.0 mph 63% 0.00 in
17:50 53.7 °F 42.2 °F 30.16 in SW 3.0 mph 5.0 mph 65% 0.00 in
17:55 53.7 °F 41.4 °F 30.16 in Calm   5.0 mph 63% 0.00 in
18:00 54.1 °F 42.6 °F 30.16 in SW 2.0 mph 5.0 mph 65% 0.00 in
18:05 54.0 °F 42.5 °F 30.16 in WSW 1.0 mph 4.0 mph 65% 0.00 in
18:10 54.0 °F 42.1 °F 30.17 in WSW 2.0 mph 4.0 mph 64% 0.00 in
18:15 53.8 °F 42.3 °F 30.17 in WSW 2.0 mph 4.0 mph 65% 0.00 in
18:20 53.7 °F 42.2 °F 30.17 in WSW 2.0 mph 4.0 mph 65% 0.00 in
18:25 53.5 °F 42.0 °F 30.18 in SW 1.0 mph 5.0 mph 65% 0.00 in
18:30 53.5 °F 42.4 °F 30.18 in WSW 3.0 mph 5.0 mph 66% 0.00 in
18:35 53.4 °F 42.3 °F 30.18 in WSW 1.0 mph 4.0 mph 66% 0.00 in
18:40 53.4 °F 42.3 °F 30.17 in West 2.0 mph 3.0 mph 66% 0.00 in
18:45 53.2 °F 42.1 °F 30.17 in Calm   3.0 mph 66% 0.00 in
18:50 53.2 °F 42.1 °F 30.17 in Calm   1.0 mph 66% 0.00 in
18:55 53.3 °F 42.2 °F 30.17 in Calm     66% 0.00 in
19:00 53.2 °F 42.1 °F 30.18 in Calm     66% 0.00 in
19:05 53.1 °F 42.0 °F 30.18 in West 2.0 mph 3.0 mph 66% 0.00 in
19:10 53.1 °F 42.4 °F 30.19 in WSW 2.0 mph 5.0 mph 67% 0.00 in
19:15 53.0 °F 42.3 °F 30.19 in SW 3.0 mph 6.0 mph 67% 0.00 in
19:20 52.9 °F 42.2 °F 30.20 in SSW 4.0 mph 7.0 mph 67% 0.00 in
19:25 52.6 °F 41.9 °F 30.20 in WSW 1.0 mph 6.0 mph 67% 0.00 in
19:30 52.6 °F 41.9 °F 30.20 in WSW 2.0 mph 6.0 mph 67% 0.00 in
19:35 52.4 °F 41.8 °F 30.20 in SW 2.0 mph 6.0 mph 67% 0.00 in
19:40 52.2 °F 41.6 °F 30.20 in SW 3.0 mph 6.0 mph 67% 0.00 in
19:45 52.1 °F 41.5 °F 30.20 in SW 3.0 mph 5.0 mph 67% 0.00 in
19:50 52.0 °F 41.4 °F 30.20 in Calm   7.0 mph 67% 0.00 in
19:55 52.0 °F 41.8 °F 30.21 in WSW 2.0 mph 6.0 mph 68% 0.00 in
20:00 51.8 °F 41.6 °F 30.20 in SW 2.0 mph 6.0 mph 68% 0.00 in
20:05 51.6 °F 41.4 °F 30.20 in SW 2.0 mph 5.0 mph 68% 0.00 in
20:10 51.5 °F 41.7 °F 30.20 in WSW 2.0 mph 5.0 mph 69% 0.00 in
20:15 51.4 °F 41.6 °F 30.20 in West 2.0 mph 4.0 mph 69% 0.00 in
20:20 51.2 °F 41.7 °F 30.19 in WSW 1.0 mph 3.0 mph 70% 0.00 in
20:25 50.8 °F 41.4 °F 30.19 in Calm   1.0 mph 70% 0.00 in
20:30 50.7 °F 41.6 °F 30.19 in WSW 1.0 mph 3.0 mph 71% 0.00 in
20:35 50.5 °F 41.4 °F 30.20 in WSW 1.0 mph 3.0 mph 71% 0.00 in
20:40 50.4 °F 41.3 °F 30.21 in WSW 1.0 mph 3.0 mph 71% 0.00 in
20:45 50.3 °F 41.6 °F 30.21 in WSW 1.0 mph 4.0 mph 72% 0.00 in
20:50 50.1 °F 41.4 °F 30.23 in West 1.0 mph 5.0 mph 72% 0.00 in
20:55 50.1 °F 41.4 °F 30.23 in SW 5.0 mph 5.0 mph 72% 0.00 in
21:00 49.9 °F 41.6 °F 30.23 in WSW 2.0 mph 6.0 mph 73% 0.00 in
21:05 49.6 °F 41.3 °F 30.23 in West 2.0 mph 6.0 mph 73% 0.00 in
21:10 49.4 °F 41.5 °F 30.23 in West 1.0 mph 2.0 mph 74% 0.00 in
21:15 49.1 °F 41.5 °F 30.24 in West 1.0 mph 2.0 mph 75% 0.00 in
21:20 48.8 °F 41.2 °F 30.24 in Calm   3.0 mph 75% 0.00 in
21:25 48.8 °F 41.2 °F 30.24 in Calm   3.0 mph 75% 0.00 in
21:30 48.6 °F 41.0 °F 30.24 in Calm   3.0 mph 75% 0.00 in
21:35 48.7 °F 41.1 °F 30.24 in Calm   3.0 mph 75% 0.00 in
21:40 48.3 °F 41.1 °F 30.24 in Calm   2.0 mph 76% 0.00 in
21:45 48.0 °F 41.1 °F 30.24 in Calm   2.0 mph 77% 0.00 in
21:50 47.9 °F 41.0 °F 30.25 in Calm     77% 0.00 in
21:55 47.9 °F 41.0 °F 30.25 in Calm     77% 0.00 in
22:00 47.7 °F 40.8 °F 30.25 in Calm     77% 0.00 in
22:05 47.4 °F 40.9 °F 30.25 in Calm     78% 0.00 in
22:10 46.9 °F 40.7 °F 30.25 in Calm     79% 0.00 in
22:15 46.5 °F 40.7 °F 30.25 in Calm     80% 0.00 in
22:20 46.4 °F 40.6 °F 30.25 in West 1.0 mph 3.0 mph 80% 0.00 in
22:25 46.7 °F 39.5 °F 30.26 in North 2.0 mph 5.0 mph 76% 0.00 in
22:30 46.8 °F 37.2 °F 30.26 in North 1.0 mph 7.0 mph 69% 0.00 in
22:35 46.8 °F 36.0 °F 30.26 in NNW 2.0 mph 6.0 mph 66% 0.00 in
22:40 46.7 °F 34.8 °F 30.26 in NNW 5.0 mph 6.0 mph 63% 0.00 in
22:45 46.5 °F 34.6 °F 30.26 in NNW 3.0 mph 6.0 mph 63% 0.00 in
22:50 46.2 °F 34.3 °F 30.26 in NNW 2.0 mph 6.0 mph 63% 0.00 in
22:55 46.0 °F 33.7 °F 30.26 in NNW 2.0 mph 5.0 mph 62% 0.00 in
23:00 46.0 °F 33.7 °F 30.26 in North 2.0 mph 6.0 mph 62% 0.00 in
23:05 45.8 °F 33.5 °F 30.26 in NNW 1.0 mph 3.0 mph 62% 0.00 in
23:10 45.6 °F 33.7 °F 30.25 in Calm   3.0 mph 63% 0.00 in
23:15 45.3 °F 33.4 °F 30.25 in NNW 1.0 mph 3.0 mph 63% 0.00 in
23:20 45.2 °F 33.3 °F 30.24 in Calm     63% 0.00 in
23:25 45.2 °F 33.3 °F 30.24 in NE 3.0 mph 4.0 mph 63% 0.00 in
23:30 45.2 °F 33.3 °F 30.25 in NE 1.0 mph 3.0 mph 63% 0.00 in
23:35 45.1 °F 33.2 °F 30.26 in Calm   2.0 mph 63% 0.00 in
23:40 44.6 °F 33.6 °F 30.26 in NE 2.0 mph 2.0 mph 65% 0.00 in
23:45 44.6 °F 33.6 °F 30.25 in NE 1.0 mph 5.0 mph 65% 0.00 in
23:50 44.6 °F 33.6 °F 30.25 in NNE 2.0 mph 5.0 mph 65% 0.00 in
23:55 44.5 °F 33.5 °F 30.25 in North 1.0 mph 4.0 mph 65% 0.00 in
Buffalo, New York, USA
Compliments of Weather Underground - 2.5 mb